Terminal Aerodrome Forecast
Issued by NWS Goodland, KS

Home | Current Version | Previous Version | Text Only | Print | Product List | Glossary On
Versions: 1 2 3 4 5 6 7 8 9 10 11 12 13 14
000
FTUS43 KGLD 201400 AAA
TAFGLD
TAF AMD
KGLD 201432Z 2015/2112 VRB05KT P6SM BKN100
     FM201700 09008KT P6SM VCSH BKN035
     FM210200 VRB06KT P6SM BKN080
     FM210900 34015KT P6SM SCT100=

USA.gov is the U.S. government's official web portal to all federal, state and local government web resources and services.